sensor_id;sensor_type;location;lat;lon;timestamp;P1;durP1;ratioP1;P2;durP2;ratioP2
20649;SDS011;10484;48.736;9.332;2023-12-20T00:01:46;2.00;;;1.63;;
20649;SDS011;10484;48.736;9.332;2023-12-20T00:04:12;2.13;;;1.70;;
20649;SDS011;10484;48.736;9.332;2023-12-20T00:06:37;2.40;;;2.20;;
20649;SDS011;10484;48.736;9.332;2023-12-20T00:09:03;2.13;;;1.73;;
20649;SDS011;10484;48.736;9.332;2023-12-20T00:11:28;2.00;;;1.53;;
20649;SDS011;10484;48.736;9.332;2023-12-20T00:13:54;2.47;;;2.20;;
20649;SDS011;10484;48.736;9.332;2023-12-20T00:16:20;2.40;;;1.27;;
20649;SDS011;10484;48.736;9.332;2023-12-20T00:18:45;3.20;;;2.00;;
20649;SDS011;10484;48.736;9.332;2023-12-20T00:21:11;1.97;;;1.87;;
20649;SDS011;10484;48.736;9.332;2023-12-20T00:23:36;2.40;;;2.20;;
20649;SDS011;10484;48.736;9.332;2023-12-20T00:26:02;1.50;;;1.40;;
20649;SDS011;10484;48.736;9.332;2023-12-20T00:28:27;2.23;;;2.10;;
20649;SDS011;10484;48.736;9.332;2023-12-20T00:30:53;1.30;;;1.20;;
20649;SDS011;10484;48.736;9.332;2023-12-20T00:33:19;1.17;;;1.03;;
20649;SDS011;10484;48.736;9.332;2023-12-20T00:35:44;1.97;;;1.77;;
20649;SDS011;10484;48.736;9.332;2023-12-20T00:38:10;1.63;;;1.37;;
20649;SDS011;10484;48.736;9.332;2023-12-20T00:40:36;1.55;;;1.42;;
20649;SDS011;10484;48.736;9.332;2023-12-20T00:43:02;1.70;;;1.10;;
20649;SDS011;10484;48.736;9.332;2023-12-20T00:45:28;1.80;;;1.37;;
20649;SDS011;10484;48.736;9.332;2023-12-20T00:47:53;1.80;;;1.40;;
20649;SDS011;10484;48.736;9.332;2023-12-20T00:50:19;1.43;;;1.33;;
20649;SDS011;10484;48.736;9.332;2023-12-20T00:52:46;2.15;;;1.85;;
20649;SDS011;10484;48.736;9.332;2023-12-20T00:55:12;3.37;;;1.70;;
20649;SDS011;10484;48.736;9.332;2023-12-20T00:57:38;1.50;;;1.40;;
20649;SDS011;10484;48.736;9.332;2023-12-20T01:00:04;1.50;;;1.40;;
20649;SDS011;10484;48.736;9.332;2023-12-20T01:02:30;2.10;;;1.60;;
20649;SDS011;10484;48.736;9.332;2023-12-20T01:04:55;1.50;;;1.40;;
20649;SDS011;10484;48.736;9.332;2023-12-20T01:07:21;2.70;;;1.53;;
20649;SDS011;10484;48.736;9.332;2023-12-20T01:09:46;1.40;;;1.30;;
20649;SDS011;10484;48.736;9.332;2023-12-20T01:12:12;2.63;;;2.23;;
20649;SDS011;10484;48.736;9.332;2023-12-20T01:14:37;1.87;;;1.77;;
20649;SDS011;10484;48.736;9.332;2023-12-20T01:17:04;1.60;;;1.50;;
20649;SDS011;10484;48.736;9.332;2023-12-20T01:19:30;2.90;;;2.10;;
20649;SDS011;10484;48.736;9.332;2023-12-20T01:21:55;2.40;;;2.00;;
20649;SDS011;10484;48.736;9.332;2023-12-20T01:24:21;3.00;;;1.77;;
20649;SDS011;10484;48.736;9.332;2023-12-20T01:26:46;1.83;;;1.63;;
20649;SDS011;10484;48.736;9.332;2023-12-20T01:29:12;2.27;;;1.87;;
20649;SDS011;10484;48.736;9.332;2023-12-20T01:31:39;3.00;;;2.30;;
20649;SDS011;10484;48.736;9.332;2023-12-20T01:34:05;1.85;;;1.75;;
20649;SDS011;10484;48.736;9.332;2023-12-20T01:36:31;2.10;;;1.90;;
20649;SDS011;10484;48.736;9.332;2023-12-20T01:38:56;2.30;;;2.10;;
20649;SDS011;10484;48.736;9.332;2023-12-20T01:41:22;2.40;;;2.20;;
20649;SDS011;10484;48.736;9.332;2023-12-20T01:43:48;2.20;;;1.93;;
20649;SDS011;10484;48.736;9.332;2023-12-20T01:46:13;4.03;;;3.00;;
20649;SDS011;10484;48.736;9.332;2023-12-20T01:48:40;3.45;;;2.72;;
20649;SDS011;10484;48.736;9.332;2023-12-20T01:51:06;1.77;;;1.67;;
20649;SDS011;10484;48.736;9.332;2023-12-20T01:53:32;2.83;;;1.87;;
20649;SDS011;10484;48.736;9.332;2023-12-20T01:55:58;2.55;;;2.35;;
20649;SDS011;10484;48.736;9.332;2023-12-20T01:58:24;2.33;;;2.13;;
20649;SDS011;10484;48.736;9.332;2023-12-20T02:00:50;2.83;;;2.63;;
20649;SDS011;10484;48.736;9.332;2023-12-20T02:03:16;2.83;;;2.10;;
20649;SDS011;10484;48.736;9.332;2023-12-20T02:05:43;2.60;;;2.40;;
20649;SDS011;10484;48.736;9.332;2023-12-20T02:08:10;2.17;;;1.98;;
20649;SDS011;10484;48.736;9.332;2023-12-20T02:10:36;2.47;;;2.27;;
20649;SDS011;10484;48.736;9.332;2023-12-20T02:13:02;3.53;;;3.00;;
20649;SDS011;10484;48.736;9.332;2023-12-20T02:15:29;2.67;;;2.45;;
20649;SDS011;10484;48.736;9.332;2023-12-20T02:17:54;3.77;;;3.17;;
20649;SDS011;10484;48.736;9.332;2023-12-20T02:20:20;2.87;;;2.67;;
20649;SDS011;10484;48.736;9.332;2023-12-20T02:22:46;5.27;;;3.30;;
20649;SDS011;10484;48.736;9.332;2023-12-20T02:25:11;3.90;;;2.73;;
20649;SDS011;10484;48.736;9.332;2023-12-20T02:27:37;3.77;;;2.90;;
20649;SDS011;10484;48.736;9.332;2023-12-20T02:30:04;3.15;;;2.92;;
20649;SDS011;10484;48.736;9.332;2023-12-20T02:32:31;4.07;;;3.28;;
20649;SDS011;10484;48.736;9.332;2023-12-20T02:34:56;3.67;;;3.33;;
20649;SDS011;10484;48.736;9.332;2023-12-20T02:37:22;3.47;;;3.13;;
20649;SDS011;10484;48.736;9.332;2023-12-20T02:39:48;2.63;;;2.43;;
20649;SDS011;10484;48.736;9.332;2023-12-20T02:42:13;3.23;;;2.77;;
20649;SDS011;10484;48.736;9.332;2023-12-20T02:44:39;3.30;;;3.00;;
20649;SDS011;10484;48.736;9.332;2023-12-20T02:47:05;3.40;;;3.10;;
20649;SDS011;10484;48.736;9.332;2023-12-20T02:49:30;3.53;;;3.20;;
20649;SDS011;10484;48.736;9.332;2023-12-20T02:51:56;2.60;;;2.40;;
20649;SDS011;10484;48.736;9.332;2023-12-20T02:54:21;3.07;;;2.77;;
20649;SDS011;10484;48.736;9.332;2023-12-20T02:56:47;3.57;;;3.23;;
20649;SDS011;10484;48.736;9.332;2023-12-20T02:59:13;2.50;;;2.30;;
20649;SDS011;10484;48.736;9.332;2023-12-20T03:01:42;4.00;;;2.33;;
20649;SDS011;10484;48.736;9.332;2023-12-20T03:04:09;2.70;;;2.50;;
20649;SDS011;10484;48.736;9.332;2023-12-20T03:06:35;2.17;;;2.03;;
20649;SDS011;10484;48.736;9.332;2023-12-20T03:09:00;2.70;;;2.50;;
20649;SDS011;10484;48.736;9.332;2023-12-20T03:11:26;3.17;;;2.87;;
20649;SDS011;10484;48.736;9.332;2023-12-20T03:13:52;3.28;;;2.70;;
20649;SDS011;10484;48.736;9.332;2023-12-20T03:16:18;2.57;;;2.33;;
20649;SDS011;10484;48.736;9.332;2023-12-20T03:18:43;2.60;;;1.97;;
20649;SDS011;10484;48.736;9.332;2023-12-20T03:21:09;2.53;;;2.20;;
20649;SDS011;10484;48.736;9.332;2023-12-20T03:23:34;2.60;;;2.40;;
20649;SDS011;10484;48.736;9.332;2023-12-20T03:26:00;3.57;;;2.60;;
20649;SDS011;10484;48.736;9.332;2023-12-20T03:28:26;2.43;;;2.23;;
20649;SDS011;10484;48.736;9.332;2023-12-20T03:30:52;3.35;;;3.05;;
20649;SDS011;10484;48.736;9.332;2023-12-20T03:33:18;3.00;;;2.70;;
20649;SDS011;10484;48.736;9.332;2023-12-20T03:35:43;3.43;;;3.10;;
20649;SDS011;10484;48.736;9.332;2023-12-20T03:38:09;3.70;;;2.50;;
20649;SDS011;10484;48.736;9.332;2023-12-20T03:40:35;2.83;;;2.53;;
20649;SDS011;10484;48.736;9.332;2023-12-20T03:43:00;2.90;;;2.70;;
20649;SDS011;10484;48.736;9.332;2023-12-20T03:45:26;3.00;;;2.50;;
20649;SDS011;10484;48.736;9.332;2023-12-20T03:47:51;2.60;;;2.40;;
20649;SDS011;10484;48.736;9.332;2023-12-20T03:50:20;2.70;;;2.50;;
20649;SDS011;10484;48.736;9.332;2023-12-20T03:52:49;2.53;;;2.33;;
20649;SDS011;10484;48.736;9.332;2023-12-20T03:55:15;3.43;;;3.13;;
20649;SDS011;10484;48.736;9.332;2023-12-20T03:57:40;3.10;;;2.80;;
20649;SDS011;10484;48.736;9.332;2023-12-20T04:00:08;2.80;;;2.60;;
20649;SDS011;10484;48.736;9.332;2023-12-20T04:02:36;2.70;;;2.50;;
20649;SDS011;10484;48.736;9.332;2023-12-20T04:05:05;2.20;;;2.00;;
20649;SDS011;10484;48.736;9.332;2023-12-20T04:07:32;3.33;;;3.03;;
20649;SDS011;10484;48.736;9.332;2023-12-20T04:09:57;2.90;;;2.70;;
20649;SDS011;10484;48.736;9.332;2023-12-20T04:12:23;3.57;;;3.27;;
20649;SDS011;10484;48.736;9.332;2023-12-20T04:14:49;3.13;;;2.33;;
20649;SDS011;10484;48.736;9.332;2023-12-20T04:17:15;2.60;;;2.40;;
20649;SDS011;10484;48.736;9.332;2023-12-20T04:19:41;2.10;;;1.90;;
20649;SDS011;10484;48.736;9.332;2023-12-20T04:22:07;2.67;;;2.45;;
20649;SDS011;10484;48.736;9.332;2023-12-20T04:24:32;2.87;;;2.67;;
20649;SDS011;10484;48.736;9.332;2023-12-20T04:26:58;3.10;;;2.60;;
20649;SDS011;10484;48.736;9.332;2023-12-20T04:29:23;2.50;;;2.30;;
20649;SDS011;10484;48.736;9.332;2023-12-20T04:31:49;3.50;;;3.13;;
20649;SDS011;10484;48.736;9.332;2023-12-20T04:34:16;2.50;;;2.30;;
20649;SDS011;10484;48.736;9.332;2023-12-20T04:36:42;2.83;;;2.33;;
20649;SDS011;10484;48.736;9.332;2023-12-20T04:39:08;2.63;;;2.43;;
20649;SDS011;10484;48.736;9.332;2023-12-20T04:41:33;2.60;;;2.40;;
20649;SDS011;10484;48.736;9.332;2023-12-20T04:43:59;3.60;;;2.30;;
20649;SDS011;10484;48.736;9.332;2023-12-20T04:46:25;2.53;;;2.33;;
20649;SDS011;10484;48.736;9.332;2023-12-20T04:48:51;2.80;;;2.53;;
20649;SDS011;10484;48.736;9.332;2023-12-20T04:51:16;2.67;;;2.43;;
20649;SDS011;10484;48.736;9.332;2023-12-20T04:53:42;2.83;;;2.20;;
20649;SDS011;10484;48.736;9.332;2023-12-20T04:56:08;2.50;;;2.30;;
20649;SDS011;10484;48.736;9.332;2023-12-20T04:58:33;2.43;;;2.23;;
20649;SDS011;10484;48.736;9.332;2023-12-20T05:00:59;2.63;;;2.13;;
20649;SDS011;10484;48.736;9.332;2023-12-20T05:03:25;2.33;;;2.13;;
20649;SDS011;10484;48.736;9.332;2023-12-20T05:05:50;2.57;;;2.37;;
20649;SDS011;10484;48.736;9.332;2023-12-20T05:08:16;3.50;;;2.67;;
20649;SDS011;10484;48.736;9.332;2023-12-20T05:10:41;3.00;;;2.80;;
20649;SDS011;10484;48.736;9.332;2023-12-20T05:13:07;2.57;;;2.37;;
20649;SDS011;10484;48.736;9.332;2023-12-20T05:15:32;2.73;;;2.53;;
20649;SDS011;10484;48.736;9.332;2023-12-20T05:17:58;2.27;;;1.90;;
20649;SDS011;10484;48.736;9.332;2023-12-20T05:20:24;2.00;;;1.90;;
20649;SDS011;10484;48.736;9.332;2023-12-20T05:22:49;3.07;;;2.87;;
20649;SDS011;10484;48.736;9.332;2023-12-20T05:25:15;2.70;;;2.50;;
20649;SDS011;10484;48.736;9.332;2023-12-20T05:27:41;3.97;;;3.03;;
20649;SDS011;10484;48.736;9.332;2023-12-20T05:30:06;2.60;;;2.40;;
20649;SDS011;10484;48.736;9.332;2023-12-20T05:32:32;2.87;;;2.57;;
20649;SDS011;10484;48.736;9.332;2023-12-20T05:34:58;2.83;;;2.60;;
20649;SDS011;10484;48.736;9.332;2023-12-20T05:37:23;3.00;;;2.70;;
20649;SDS011;10484;48.736;9.332;2023-12-20T05:39:49;3.60;;;3.30;;
20649;SDS011;10484;48.736;9.332;2023-12-20T05:42:14;2.30;;;2.10;;
20649;SDS011;10484;48.736;9.332;2023-12-20T05:44:40;2.60;;;2.20;;
20649;SDS011;10484;48.736;9.332;2023-12-20T05:47:05;2.00;;;1.90;;
20649;SDS011;10484;48.736;9.332;2023-12-20T05:49:31;1.93;;;1.73;;
20649;SDS011;10484;48.736;9.332;2023-12-20T05:51:57;2.63;;;2.43;;
20649;SDS011;10484;48.736;9.332;2023-12-20T05:54:22;1.97;;;1.80;;
20649;SDS011;10484;48.736;9.332;2023-12-20T05:56:48;1.80;;;1.70;;
20649;SDS011;10484;48.736;9.332;2023-12-20T05:59:13;2.27;;;2.07;;
20649;SDS011;10484;48.736;9.332;2023-12-20T06:01:39;3.37;;;2.10;;
20649;SDS011;10484;48.736;9.332;2023-12-20T06:04:05;2.27;;;2.00;;
20649;SDS011;10484;48.736;9.332;2023-12-20T06:06:30;1.93;;;1.83;;
20649;SDS011;10484;48.736;9.332;2023-12-20T06:08:56;2.90;;;2.70;;
20649;SDS011;10484;48.736;9.332;2023-12-20T06:11:22;3.23;;;2.93;;
20649;SDS011;10484;48.736;9.332;2023-12-20T06:13:48;3.28;;;2.97;;
20649;SDS011;10484;48.736;9.332;2023-12-20T06:16:17;4.00;;;2.70;;
20649;SDS011;10484;48.736;9.332;2023-12-20T06:18:43;2.38;;;2.17;;
20649;SDS011;10484;48.736;9.332;2023-12-20T06:21:08;2.97;;;2.67;;
20649;SDS011;10484;48.736;9.332;2023-12-20T06:23:37;2.70;;;2.50;;
20649;SDS011;10484;48.736;9.332;2023-12-20T06:26:03;2.87;;;2.47;;
20649;SDS011;10484;48.736;9.332;2023-12-20T06:28:29;3.10;;;2.90;;
20649;SDS011;10484;48.736;9.332;2023-12-20T06:30:54;3.20;;;2.90;;
20649;SDS011;10484;48.736;9.332;2023-12-20T06:33:21;1.98;;;1.88;;
20649;SDS011;10484;48.736;9.332;2023-12-20T06:35:47;3.00;;;2.80;;
20649;SDS011;10484;48.736;9.332;2023-12-20T06:38:13;2.92;;;2.70;;
20649;SDS011;10484;48.736;9.332;2023-12-20T06:40:39;2.70;;;2.30;;
20649;SDS011;10484;48.736;9.332;2023-12-20T06:43:04;4.27;;;3.30;;
20649;SDS011;10484;48.736;9.332;2023-12-20T06:45:31;3.33;;;2.90;;
20649;SDS011;10484;48.736;9.332;2023-12-20T06:47:57;2.70;;;2.50;;
20649;SDS011;10484;48.736;9.332;2023-12-20T06:50:23;2.97;;;2.60;;
20649;SDS011;10484;48.736;9.332;2023-12-20T06:52:49;4.07;;;2.30;;
20649;SDS011;10484;48.736;9.332;2023-12-20T06:55:14;3.50;;;2.53;;
20649;SDS011;10484;48.736;9.332;2023-12-20T06:57:40;2.10;;;1.93;;
20649;SDS011;10484;48.736;9.332;2023-12-20T07:00:06;2.20;;;2.00;;
20649;SDS011;10484;48.736;9.332;2023-12-20T07:02:33;2.55;;;1.65;;
20649;SDS011;10484;48.736;9.332;2023-12-20T07:04:59;1.77;;;1.67;;
20649;SDS011;10484;48.736;9.332;2023-12-20T07:07:25;1.70;;;1.60;;
20649;SDS011;10484;48.736;9.332;2023-12-20T07:09:51;1.77;;;1.63;;
20649;SDS011;10484;48.736;9.332;2023-12-20T07:12:16;1.50;;;1.40;;
20649;SDS011;10484;48.736;9.332;2023-12-20T07:14:44;2.55;;;1.85;;
20649;SDS011;10484;48.736;9.332;2023-12-20T07:17:10;1.77;;;1.67;;
20649;SDS011;10484;48.736;9.332;2023-12-20T07:19:38;1.85;;;1.75;;
20649;SDS011;10484;48.736;9.332;2023-12-20T07:22:05;2.15;;;1.95;;
20649;SDS011;10484;48.736;9.332;2023-12-20T07:24:31;2.10;;;1.83;;
20649;SDS011;10484;48.736;9.332;2023-12-20T07:26:57;2.50;;;2.30;;
20649;SDS011;10484;48.736;9.332;2023-12-20T07:29:24;3.85;;;1.50;;
20649;SDS011;10484;48.736;9.332;2023-12-20T07:31:50;2.20;;;2.00;;
20649;SDS011;10484;48.736;9.332;2023-12-20T07:34:17;2.10;;;1.90;;
20649;SDS011;10484;48.736;9.332;2023-12-20T07:36:42;1.83;;;1.43;;
20649;SDS011;10484;48.736;9.332;2023-12-20T07:39:08;1.70;;;1.60;;
20649;SDS011;10484;48.736;9.332;2023-12-20T07:41:33;1.60;;;1.50;;
20649;SDS011;10484;48.736;9.332;2023-12-20T07:43:59;1.50;;;1.40;;
20649;SDS011;10484;48.736;9.332;2023-12-20T07:46:25;1.90;;;1.63;;
20649;SDS011;10484;48.736;9.332;2023-12-20T07:48:50;2.50;;;1.40;;
20649;SDS011;10484;48.736;9.332;2023-12-20T07:51:16;2.00;;;1.90;;
20649;SDS011;10484;48.736;9.332;2023-12-20T07:53:42;2.28;;;1.77;;
20649;SDS011;10484;48.736;9.332;2023-12-20T07:56:17;3.20;;;2.10;;
20649;SDS011;10484;48.736;9.332;2023-12-20T07:58:43;3.50;;;3.22;;
20649;SDS011;10484;48.736;9.332;2023-12-20T08:01:10;3.75;;;3.40;;
20649;SDS011;10484;48.736;9.332;2023-12-20T08:03:36;2.72;;;2.53;;
20649;SDS011;10484;48.736;9.332;2023-12-20T08:06:02;3.83;;;3.37;;
20649;SDS011;10484;48.736;9.332;2023-12-20T08:08:28;3.70;;;3.40;;
20649;SDS011;10484;48.736;9.332;2023-12-20T08:10:53;3.07;;;2.87;;
20649;SDS011;10484;48.736;9.332;2023-12-20T08:13:19;3.77;;;3.47;;
20649;SDS011;10484;48.736;9.332;2023-12-20T08:15:45;4.03;;;3.63;;
20649;SDS011;10484;48.736;9.332;2023-12-20T08:18:10;4.70;;;4.30;;
20649;SDS011;10484;48.736;9.332;2023-12-20T08:20:36;4.13;;;3.80;;
20649;SDS011;10484;48.736;9.332;2023-12-20T08:23:01;5.00;;;4.50;;
20649;SDS011;10484;48.736;9.332;2023-12-20T08:25:27;5.07;;;4.67;;
20649;SDS011;10484;48.736;9.332;2023-12-20T08:27:53;4.30;;;3.93;;
20649;SDS011;10484;48.736;9.332;2023-12-20T08:30:18;4.37;;;3.97;;
20649;SDS011;10484;48.736;9.332;2023-12-20T08:32:47;5.45;;;4.95;;
20649;SDS011;10484;48.736;9.332;2023-12-20T08:35:13;4.32;;;3.97;;
20649;SDS011;10484;48.736;9.332;2023-12-20T08:37:38;5.10;;;4.60;;
20649;SDS011;10484;48.736;9.332;2023-12-20T08:40:04;4.83;;;4.20;;
20649;SDS011;10484;48.736;9.332;2023-12-20T08:42:30;8.43;;;6.10;;
20649;SDS011;10484;48.736;9.332;2023-12-20T08:44:57;8.33;;;4.73;;
20649;SDS011;10484;48.736;9.332;2023-12-20T08:47:25;4.43;;;4.03;;
20649;SDS011;10484;48.736;9.332;2023-12-20T08:49:51;5.43;;;4.60;;
20649;SDS011;10484;48.736;9.332;2023-12-20T08:52:21;4.82;;;4.32;;
20649;SDS011;10484;48.736;9.332;2023-12-20T08:54:52;5.20;;;4.80;;
20649;SDS011;10484;48.736;9.332;2023-12-20T08:57:19;6.68;;;4.38;;
20649;SDS011;10484;48.736;9.332;2023-12-20T08:59:46;4.70;;;4.30;;
20649;SDS011;10484;48.736;9.332;2023-12-20T09:02:12;4.80;;;4.30;;
20649;SDS011;10484;48.736;9.332;2023-12-20T09:04:38;6.03;;;5.47;;
20649;SDS011;10484;48.736;9.332;2023-12-20T09:07:04;5.53;;;4.00;;
20649;SDS011;10484;48.736;9.332;2023-12-20T09:09:29;4.50;;;4.10;;
20649;SDS011;10484;48.736;9.332;2023-12-20T09:11:57;6.13;;;4.70;;
20649;SDS011;10484;48.736;9.332;2023-12-20T09:14:23;5.95;;;5.13;;
20649;SDS011;10484;48.736;9.332;2023-12-20T09:16:48;5.93;;;4.00;;
20649;SDS011;10484;48.736;9.332;2023-12-20T09:19:16;4.50;;;4.13;;
20649;SDS011;10484;48.736;9.332;2023-12-20T09:21:42;5.32;;;4.50;;
20649;SDS011;10484;48.736;9.332;2023-12-20T09:24:07;4.73;;;4.33;;
20649;SDS011;10484;48.736;9.332;2023-12-20T09:26:33;4.70;;;4.32;;
20649;SDS011;10484;48.736;9.332;2023-12-20T09:28:59;5.60;;;4.57;;
20649;SDS011;10484;48.736;9.332;2023-12-20T09:31:25;11.83;;;5.60;;
20649;SDS011;10484;48.736;9.332;2023-12-20T09:33:50;5.70;;;3.97;;
20649;SDS011;10484;48.736;9.332;2023-12-20T09:36:16;4.53;;;4.13;;
20649;SDS011;10484;48.736;9.332;2023-12-20T09:38:42;6.30;;;5.57;;
20649;SDS011;10484;48.736;9.332;2023-12-20T09:41:07;4.60;;;4.20;;
20649;SDS011;10484;48.736;9.332;2023-12-20T09:43:34;5.13;;;4.73;;
20649;SDS011;10484;48.736;9.332;2023-12-20T09:46:02;4.63;;;4.22;;
20649;SDS011;10484;48.736;9.332;2023-12-20T09:48:30;4.22;;;3.83;;
20649;SDS011;10484;48.736;9.332;2023-12-20T09:50:57;3.88;;;3.22;;
20649;SDS011;10484;48.736;9.332;2023-12-20T09:53:23;7.63;;;3.50;;
20649;SDS011;10484;48.736;9.332;2023-12-20T09:55:54;3.05;;;2.55;;
20649;SDS011;10484;48.736;9.332;2023-12-20T09:58:26;4.55;;;2.97;;
20649;SDS011;10484;48.736;9.332;2023-12-20T10:00:52;3.67;;;2.77;;
20649;SDS011;10484;48.736;9.332;2023-12-20T10:03:19;3.55;;;3.13;;
20649;SDS011;10484;48.736;9.332;2023-12-20T10:05:49;3.85;;;2.95;;
20649;SDS011;10484;48.736;9.332;2023-12-20T10:08:18;5.80;;;3.55;;
20649;SDS011;10484;48.736;9.332;2023-12-20T10:10:47;5.25;;;2.70;;
20649;SDS011;10484;48.736;9.332;2023-12-20T10:13:12;3.60;;;2.43;;
20649;SDS011;10484;48.736;9.332;2023-12-20T10:15:38;3.87;;;3.03;;
20649;SDS011;10484;48.736;9.332;2023-12-20T10:18:04;3.83;;;1.75;;
20649;SDS011;10484;48.736;9.332;2023-12-20T10:20:30;3.88;;;2.15;;
20649;SDS011;10484;48.736;9.332;2023-12-20T10:22:57;6.93;;;1.87;;
20649;SDS011;10484;48.736;9.332;2023-12-20T10:25:23;3.17;;;1.77;;
20649;SDS011;10484;48.736;9.332;2023-12-20T10:27:50;3.13;;;1.50;;
20649;SDS011;10484;48.736;9.332;2023-12-20T10:30:33;3.50;;;1.98;;
20649;SDS011;10484;48.736;9.332;2023-12-20T10:32:58;3.43;;;1.63;;
20649;SDS011;10484;48.736;9.332;2023-12-20T10:35:24;2.30;;;1.87;;
20649;SDS011;10484;48.736;9.332;2023-12-20T10:37:51;2.65;;;1.30;;
20649;SDS011;10484;48.736;9.332;2023-12-20T10:40:21;4.15;;;1.70;;
20649;SDS011;10484;48.736;9.332;2023-12-20T10:42:47;3.10;;;1.27;;
20649;SDS011;10484;48.736;9.332;2023-12-20T10:45:13;5.43;;;1.70;;
20649;SDS011;10484;48.736;9.332;2023-12-20T10:47:38;2.83;;;1.80;;
20649;SDS011;10484;48.736;9.332;2023-12-20T10:50:05;3.47;;;1.35;;
20649;SDS011;10484;48.736;9.332;2023-12-20T10:52:32;7.25;;;2.03;;
20649;SDS011;10484;48.736;9.332;2023-12-20T10:55:00;4.28;;;1.75;;
20649;SDS011;10484;48.736;9.332;2023-12-20T10:57:26;3.20;;;1.50;;
20649;SDS011;10484;48.736;9.332;2023-12-20T10:59:53;4.43;;;1.80;;
20649;SDS011;10484;48.736;9.332;2023-12-20T11:02:19;2.77;;;2.50;;
20649;SDS011;10484;48.736;9.332;2023-12-20T11:07:20;3.45;;;1.83;;
20649;SDS011;10484;48.736;9.332;2023-12-20T11:09:57;2.77;;;2.23;;
20649;SDS011;10484;48.736;9.332;2023-12-20T11:12:32;3.20;;;1.90;;
20649;SDS011;10484;48.736;9.332;2023-12-20T11:15:05;3.47;;;1.70;;
20649;SDS011;10484;48.736;9.332;2023-12-20T11:17:32;6.25;;;1.80;;
20649;SDS011;10484;48.736;9.332;2023-12-20T11:22:25;2.15;;;1.73;;
20649;SDS011;10484;48.736;9.332;2023-12-20T11:24:54;4.10;;;2.00;;
20649;SDS011;10484;48.736;9.332;2023-12-20T11:27:24;3.20;;;2.00;;
20649;SDS011;10484;48.736;9.332;2023-12-20T11:29:53;1.87;;;1.37;;
20649;SDS011;10484;48.736;9.332;2023-12-20T11:34:59;4.28;;;1.50;;
20649;SDS011;10484;48.736;9.332;2023-12-20T11:37:30;2.58;;;1.20;;
20649;SDS011;10484;48.736;9.332;2023-12-20T11:40:03;1.50;;;1.27;;
20649;SDS011;10484;48.736;9.332;2023-12-20T11:42:41;3.13;;;1.60;;
20649;SDS011;10484;48.736;9.332;2023-12-20T11:45:09;2.80;;;1.25;;
20649;SDS011;10484;48.736;9.332;2023-12-20T11:47:36;1.65;;;1.13;;
20649;SDS011;10484;48.736;9.332;2023-12-20T11:50:01;1.87;;;1.20;;
20649;SDS011;10484;48.736;9.332;2023-12-20T11:52:29;3.80;;;1.42;;
20649;SDS011;10484;48.736;9.332;2023-12-20T11:54:55;3.50;;;1.45;;
20649;SDS011;10484;48.736;9.332;2023-12-20T11:57:21;2.80;;;1.57;;
20649;SDS011;10484;48.736;9.332;2023-12-20T11:59:47;4.47;;;2.13;;
20649;SDS011;10484;48.736;9.332;2023-12-20T12:02:12;1.83;;;1.50;;
20649;SDS011;10484;48.736;9.332;2023-12-20T12:04:40;5.87;;;1.53;;
20649;SDS011;10484;48.736;9.332;2023-12-20T12:07:06;3.55;;;1.70;;
20649;SDS011;10484;48.736;9.332;2023-12-20T12:09:32;4.40;;;1.53;;
20649;SDS011;10484;48.736;9.332;2023-12-20T12:11:58;2.60;;;1.90;;
20649;SDS011;10484;48.736;9.332;2023-12-20T12:14:24;7.47;;;1.83;;
20649;SDS011;10484;48.736;9.332;2023-12-20T12:16:50;5.57;;;1.73;;
20649;SDS011;10484;48.736;9.332;2023-12-20T12:19:21;5.10;;;1.55;;
20649;SDS011;10484;48.736;9.332;2023-12-20T12:21:47;5.00;;;1.42;;
20649;SDS011;10484;48.736;9.332;2023-12-20T12:24:12;4.53;;;1.93;;
20649;SDS011;10484;48.736;9.332;2023-12-20T12:26:38;5.00;;;1.90;;
20649;SDS011;10484;48.736;9.332;2023-12-20T12:29:07;2.13;;;1.50;;
20649;SDS011;10484;48.736;9.332;2023-12-20T12:31:32;2.90;;;1.80;;
20649;SDS011;10484;48.736;9.332;2023-12-20T12:33:58;3.80;;;1.70;;
20649;SDS011;10484;48.736;9.332;2023-12-20T12:36:24;2.83;;;1.80;;
20649;SDS011;10484;48.736;9.332;2023-12-20T12:38:49;4.40;;;1.93;;
20649;SDS011;10484;48.736;9.332;2023-12-20T12:41:15;13.07;;;2.60;;
20649;SDS011;10484;48.736;9.332;2023-12-20T12:43:41;3.83;;;2.10;;
20649;SDS011;10484;48.736;9.332;2023-12-20T12:46:07;2.33;;;1.77;;
20649;SDS011;10484;48.736;9.332;2023-12-20T12:48:32;4.07;;;1.87;;
20649;SDS011;10484;48.736;9.332;2023-12-20T12:50:58;2.72;;;2.05;;
20649;SDS011;10484;48.736;9.332;2023-12-20T12:53:25;2.43;;;1.97;;
20649;SDS011;10484;48.736;9.332;2023-12-20T12:55:52;3.22;;;1.55;;
20649;SDS011;10484;48.736;9.332;2023-12-20T12:58:19;5.03;;;1.92;;
20649;SDS011;10484;48.736;9.332;2023-12-20T13:00:44;7.77;;;2.10;;
20649;SDS011;10484;48.736;9.332;2023-12-20T13:03:10;4.93;;;1.80;;
20649;SDS011;10484;48.736;9.332;2023-12-20T13:05:35;2.53;;;1.30;;
20649;SDS011;10484;48.736;9.332;2023-12-20T13:08:01;2.93;;;1.50;;
20649;SDS011;10484;48.736;9.332;2023-12-20T13:10:26;6.27;;;2.20;;
20649;SDS011;10484;48.736;9.332;2023-12-20T13:12:53;10.02;;;1.80;;
20649;SDS011;10484;48.736;9.332;2023-12-20T13:15:19;3.93;;;1.57;;
20649;SDS011;10484;48.736;9.332;2023-12-20T13:17:44;4.30;;;1.57;;
20649;SDS011;10484;48.736;9.332;2023-12-20T13:20:11;4.53;;;1.60;;
20649;SDS011;10484;48.736;9.332;2023-12-20T13:22:36;4.70;;;2.07;;
20649;SDS011;10484;48.736;9.332;2023-12-20T13:25:02;3.97;;;1.70;;
20649;SDS011;10484;48.736;9.332;2023-12-20T13:27:28;4.60;;;1.90;;
20649;SDS011;10484;48.736;9.332;2023-12-20T13:29:53;4.47;;;1.90;;
20649;SDS011;10484;48.736;9.332;2023-12-20T13:32:19;2.20;;;1.80;;
20649;SDS011;10484;48.736;9.332;2023-12-20T13:34:45;6.83;;;3.13;;
20649;SDS011;10484;48.736;9.332;2023-12-20T13:37:10;6.47;;;1.83;;
20649;SDS011;10484;48.736;9.332;2023-12-20T13:39:36;4.37;;;2.33;;
20649;SDS011;10484;48.736;9.332;2023-12-20T13:42:02;3.20;;;1.60;;
20649;SDS011;10484;48.736;9.332;2023-12-20T13:44:28;6.17;;;1.63;;
20649;SDS011;10484;48.736;9.332;2023-12-20T13:46:54;4.10;;;1.40;;
20649;SDS011;10484;48.736;9.332;2023-12-20T13:49:19;4.63;;;1.57;;
20649;SDS011;10484;48.736;9.332;2023-12-20T13:51:46;2.42;;;1.40;;
20649;SDS011;10484;48.736;9.332;2023-12-20T13:54:12;2.55;;;1.40;;
20649;SDS011;10484;48.736;9.332;2023-12-20T13:56:38;3.67;;;1.37;;
20649;SDS011;10484;48.736;9.332;2023-12-20T13:59:03;2.07;;;1.37;;
20649;SDS011;10484;48.736;9.332;2023-12-20T14:01:29;4.53;;;1.27;;
20649;SDS011;10484;48.736;9.332;2023-12-20T14:03:55;3.17;;;1.67;;
20649;SDS011;10484;48.736;9.332;2023-12-20T14:06:20;2.63;;;1.87;;
20649;SDS011;10484;48.736;9.332;2023-12-20T14:08:46;2.67;;;1.67;;
20649;SDS011;10484;48.736;9.332;2023-12-20T14:11:11;2.23;;;1.70;;
20649;SDS011;10484;48.736;9.332;2023-12-20T14:13:38;3.07;;;1.80;;
20649;SDS011;10484;48.736;9.332;2023-12-20T14:16:04;3.97;;;1.70;;
20649;SDS011;10484;48.736;9.332;2023-12-20T14:18:30;5.13;;;1.70;;
20649;SDS011;10484;48.736;9.332;2023-12-20T14:20:55;3.10;;;1.60;;
20649;SDS011;10484;48.736;9.332;2023-12-20T14:23:21;6.47;;;3.20;;
20649;SDS011;10484;48.736;9.332;2023-12-20T14:25:47;6.85;;;3.28;;
20649;SDS011;10484;48.736;9.332;2023-12-20T14:28:14;5.43;;;2.30;;
20649;SDS011;10484;48.736;9.332;2023-12-20T14:30:40;5.50;;;2.23;;
20649;SDS011;10484;48.736;9.332;2023-12-20T14:33:05;4.23;;;2.50;;
20649;SDS011;10484;48.736;9.332;2023-12-20T14:35:31;4.33;;;1.83;;
20649;SDS011;10484;48.736;9.332;2023-12-20T14:37:57;2.30;;;1.50;;
20649;SDS011;10484;48.736;9.332;2023-12-20T14:40:23;3.97;;;1.33;;
20649;SDS011;10484;48.736;9.332;2023-12-20T14:42:48;3.70;;;1.40;;
20649;SDS011;10484;48.736;9.332;2023-12-20T14:45:15;3.58;;;1.38;;
20649;SDS011;10484;48.736;9.332;2023-12-20T14:47:43;2.00;;;1.20;;
20649;SDS011;10484;48.736;9.332;2023-12-20T14:50:09;2.50;;;1.40;;